sensor_id;sensor_type;location;lat;lon;timestamp;temperature;humidity
67054;SHT31;53960;51.826;5.850;2023-04-06T00:00:58;5.27;62.96
67054;SHT31;53960;51.826;5.850;2023-04-06T00:03:24;5.25;63.00
67054;SHT31;53960;51.826;5.850;2023-04-06T00:05:49;5.35;62.19
67054;SHT31;53960;51.826;5.850;2023-04-06T00:08:15;5.36;62.36
67054;SHT31;53960;51.826;5.850;2023-04-06T00:10:41;5.29;62.97
67054;SHT31;53960;51.826;5.850;2023-04-06T00:13:06;5.32;62.68
67054;SHT31;53960;51.826;5.850;2023-04-06T00:15:33;5.31;62.66
67054;SHT31;53960;51.826;5.850;2023-04-06T00:17:58;5.31;63.07
67054;SHT31;53960;51.826;5.850;2023-04-06T00:20:24;5.19;62.98
67054;SHT31;53960;51.826;5.850;2023-04-06T00:22:49;5.24;62.61
67054;SHT31;53960;51.826;5.850;2023-04-06T00:25:15;5.25;63.09
67054;SHT31;53960;51.826;5.850;2023-04-06T00:27:41;5.25;62.79
67054;SHT31;53960;51.826;5.850;2023-04-06T00:30:07;5.22;62.85
67054;SHT31;53960;51.826;5.850;2023-04-06T00:32:33;5.15;63.26
67054;SHT31;53960;51.826;5.850;2023-04-06T00:34:59;5.18;62.81
67054;SHT31;53960;51.826;5.850;2023-04-06T00:37:24;5.15;62.73
67054;SHT31;53960;51.826;5.850;2023-04-06T00:39:49;5.14;63.03
67054;SHT31;53960;51.826;5.850;2023-04-06T00:42:17;5.14;63.53
67054;SHT31;53960;51.826;5.850;2023-04-06T00:44:50;5.15;63.70
67054;SHT31;53960;51.826;5.850;2023-04-06T00:47:15;5.14;63.77
67054;SHT31;53960;51.826;5.850;2023-04-06T00:49:41;5.15;63.33
67054;SHT31;53960;51.826;5.850;2023-04-06T00:52:06;5.14;63.62
67054;SHT31;53960;51.826;5.850;2023-04-06T00:54:31;5.14;64.28
67054;SHT31;53960;51.826;5.850;2023-04-06T00:56:57;5.05;64.22
67054;SHT31;53960;51.826;5.850;2023-04-06T00:59:22;5.08;64.03
67054;SHT31;53960;51.826;5.850;2023-04-06T01:01:48;5.07;64.98
67054;SHT31;53960;51.826;5.850;2023-04-06T01:04:13;5.01;64.73
67054;SHT31;53960;51.826;5.850;2023-04-06T01:06:38;5.04;64.73
67054;SHT31;53960;51.826;5.850;2023-04-06T01:09:03;5.02;64.91
67054;SHT31;53960;51.826;5.850;2023-04-06T01:11:29;4.95;64.80
67054;SHT31;53960;51.826;5.850;2023-04-06T01:13:55;4.97;64.75
67054;SHT31;53960;51.826;5.850;2023-04-06T01:16:20;4.97;64.93
67054;SHT31;53960;51.826;5.850;2023-04-06T01:18:45;4.92;64.74
67054;SHT31;53960;51.826;5.850;2023-04-06T01:21:11;4.88;65.31
67054;SHT31;53960;51.826;5.850;2023-04-06T01:23:43;4.81;65.58
67054;SHT31;53960;51.826;5.850;2023-04-06T01:26:09;4.83;65.62
67054;SHT31;53960;51.826;5.850;2023-04-06T01:28:34;4.80;65.60
67054;SHT31;53960;51.826;5.850;2023-04-06T01:31:00;4.68;65.93
67054;SHT31;53960;51.826;5.850;2023-04-06T01:33:25;4.66;65.79
67054;SHT31;53960;51.826;5.850;2023-04-06T01:35:51;4.66;65.83
67054;SHT31;53960;51.826;5.850;2023-04-06T01:38:16;4.67;65.74
67054;SHT31;53960;51.826;5.850;2023-04-06T01:40:41;4.68;65.73
67054;SHT31;53960;51.826;5.850;2023-04-06T01:43:07;4.70;65.60
67054;SHT31;53960;51.826;5.850;2023-04-06T01:45:32;4.71;65.34
67054;SHT31;53960;51.826;5.850;2023-04-06T01:47:57;4.67;66.12
67054;SHT31;53960;51.826;5.850;2023-04-06T01:50:23;4.68;66.01
67054;SHT31;53960;51.826;5.850;2023-04-06T01:52:48;4.70;65.93
67054;SHT31;53960;51.826;5.850;2023-04-06T01:55:13;4.66;65.84
67054;SHT31;53960;51.826;5.850;2023-04-06T01:57:38;4.64;65.90
67054;SHT31;53960;51.826;5.850;2023-04-06T02:00:05;4.64;66.19
67054;SHT31;53960;51.826;5.850;2023-04-06T02:02:30;4.54;66.15
67054;SHT31;53960;51.826;5.850;2023-04-06T02:04:56;4.54;66.02
67054;SHT31;53960;51.826;5.850;2023-04-06T02:07:21;4.52;66.09
67054;SHT31;53960;51.826;5.850;2023-04-06T02:09:46;4.52;66.00
67054;SHT31;53960;51.826;5.850;2023-04-06T02:12:12;4.53;65.72
67054;SHT31;53960;51.826;5.850;2023-04-06T02:14:37;4.59;65.91
67054;SHT31;53960;51.826;5.850;2023-04-06T02:17:02;4.54;65.95
67054;SHT31;53960;51.826;5.850;2023-04-06T02:19:27;4.53;66.23
67054;SHT31;53960;51.826;5.850;2023-04-06T02:21:53;4.54;66.29
67054;SHT31;53960;51.826;5.850;2023-04-06T02:24:18;4.54;66.17
67054;SHT31;53960;51.826;5.850;2023-04-06T02:26:43;4.53;66.01
67054;SHT31;53960;51.826;5.850;2023-04-06T02:29:09;4.57;65.91
67054;SHT31;53960;51.826;5.850;2023-04-06T02:31:34;4.59;66.35
67054;SHT31;53960;51.826;5.850;2023-04-06T02:34:00;4.57;65.90
67054;SHT31;53960;51.826;5.850;2023-04-06T02:36:25;4.63;65.86
67054;SHT31;53960;51.826;5.850;2023-04-06T02:38:51;4.61;66.27
67054;SHT31;53960;51.826;5.850;2023-04-06T02:41:16;4.64;66.09
67054;SHT31;53960;51.826;5.850;2023-04-06T02:43:42;4.66;66.67
67054;SHT31;53960;51.826;5.850;2023-04-06T02:46:07;4.63;66.49
67054;SHT31;53960;51.826;5.850;2023-04-06T02:48:32;4.63;66.38
67054;SHT31;53960;51.826;5.850;2023-04-06T02:51:01;4.66;66.42
67054;SHT31;53960;51.826;5.850;2023-04-06T02:53:26;4.68;66.44
67054;SHT31;53960;51.826;5.850;2023-04-06T02:55:52;4.70;66.29
67054;SHT31;53960;51.826;5.850;2023-04-06T02:58:18;4.67;66.63
67054;SHT31;53960;51.826;5.850;2023-04-06T03:00:43;4.67;66.68
67054;SHT31;53960;51.826;5.850;2023-04-06T03:03:08;4.66;66.73
67054;SHT31;53960;51.826;5.850;2023-04-06T03:05:34;4.76;66.14
67054;SHT31;53960;51.826;5.850;2023-04-06T03:07:59;4.73;65.92
67054;SHT31;53960;51.826;5.850;2023-04-06T03:10:25;4.77;65.98
67054;SHT31;53960;51.826;5.850;2023-04-06T03:12:50;4.76;66.51
67054;SHT31;53960;51.826;5.850;2023-04-06T03:15:15;4.77;66.30
67054;SHT31;53960;51.826;5.850;2023-04-06T03:17:41;4.81;66.16
67054;SHT31;53960;51.826;5.850;2023-04-06T03:20:06;4.84;66.08
67054;SHT31;53960;51.826;5.850;2023-04-06T03:22:32;4.92;65.72
67054;SHT31;53960;51.826;5.850;2023-04-06T03:24:57;4.91;65.85
67054;SHT31;53960;51.826;5.850;2023-04-06T03:27:22;4.94;66.11
67054;SHT31;53960;51.826;5.850;2023-04-06T03:29:48;4.94;65.91
67054;SHT31;53960;51.826;5.850;2023-04-06T03:32:13;4.90;66.07
67054;SHT31;53960;51.826;5.850;2023-04-06T03:34:39;4.95;65.98
67054;SHT31;53960;51.826;5.850;2023-04-06T03:37:05;4.94;66.20
67054;SHT31;53960;51.826;5.850;2023-04-06T03:39:30;4.98;65.88
67054;SHT31;53960;51.826;5.850;2023-04-06T03:41:55;4.98;66.39
67054;SHT31;53960;51.826;5.850;2023-04-06T03:44:21;4.97;66.18
67054;SHT31;53960;51.826;5.850;2023-04-06T03:46:46;4.99;66.70
67054;SHT31;53960;51.826;5.850;2023-04-06T03:49:11;5.02;65.71
67054;SHT31;53960;51.826;5.850;2023-04-06T03:51:37;5.02;65.53
67054;SHT31;53960;51.826;5.850;2023-04-06T03:54:02;5.04;66.18
67054;SHT31;53960;51.826;5.850;2023-04-06T03:56:27;5.08;66.10
67054;SHT31;53960;51.826;5.850;2023-04-06T03:58:53;5.11;65.96
67054;SHT31;53960;51.826;5.850;2023-04-06T04:01:18;5.17;66.11
67054;SHT31;53960;51.826;5.850;2023-04-06T04:03:44;5.12;66.23
67054;SHT31;53960;51.826;5.850;2023-04-06T04:06:09;5.24;64.64
67054;SHT31;53960;51.826;5.850;2023-04-06T04:08:34;5.27;65.95
67054;SHT31;53960;51.826;5.850;2023-04-06T04:11:00;5.25;65.27
67054;SHT31;53960;51.826;5.850;2023-04-06T04:13:26;5.28;64.43
67054;SHT31;53960;51.826;5.850;2023-04-06T04:15:51;5.24;65.78
67054;SHT31;53960;51.826;5.850;2023-04-06T04:18:16;5.25;65.47
67054;SHT31;53960;51.826;5.850;2023-04-06T04:20:42;5.31;64.61
67054;SHT31;53960;51.826;5.850;2023-04-06T04:23:07;5.29;65.13
67054;SHT31;53960;51.826;5.850;2023-04-06T04:25:32;5.32;65.64
67054;SHT31;53960;51.826;5.850;2023-04-06T04:34:31;5.38;65.30
67054;SHT31;53960;51.826;5.850;2023-04-06T04:36:57;5.38;64.70
67054;SHT31;53960;51.826;5.850;2023-04-06T04:39:23;5.43;63.46
67054;SHT31;53960;51.826;5.850;2023-04-06T04:41:48;5.45;63.97
67054;SHT31;53960;51.826;5.850;2023-04-06T04:44:13;5.42;64.60
67054;SHT31;53960;51.826;5.850;2023-04-06T04:46:40;5.38;65.88
67054;SHT31;53960;51.826;5.850;2023-04-06T04:49:06;5.39;64.66
67054;SHT31;53960;51.826;5.850;2023-04-06T04:51:31;5.35;65.45
67054;SHT31;53960;51.826;5.850;2023-04-06T04:53:57;5.38;65.51
67054;SHT31;53960;51.826;5.850;2023-04-06T04:56:23;5.38;65.82
67054;SHT31;53960;51.826;5.850;2023-04-06T04:58:48;5.34;65.83
67054;SHT31;53960;51.826;5.850;2023-04-06T05:01:14;5.34;66.08
67054;SHT31;53960;51.826;5.850;2023-04-06T05:03:39;5.34;65.91
67054;SHT31;53960;51.826;5.850;2023-04-06T05:06:05;5.34;65.87
67054;SHT31;53960;51.826;5.850;2023-04-06T05:08:31;5.32;65.71
67054;SHT31;53960;51.826;5.850;2023-04-06T05:10:56;5.36;65.44
67054;SHT31;53960;51.826;5.850;2023-04-06T05:13:22;5.35;65.90
67054;SHT31;53960;51.826;5.850;2023-04-06T05:15:47;5.40;65.70
67054;SHT31;53960;51.826;5.850;2023-04-06T05:18:13;5.39;65.48
67054;SHT31;53960;51.826;5.850;2023-04-06T05:20:38;5.36;65.25
67054;SHT31;53960;51.826;5.850;2023-04-06T05:23:04;5.39;64.67
67054;SHT31;53960;51.826;5.850;2023-04-06T05:25:30;5.43;64.14
67054;SHT31;53960;51.826;5.850;2023-04-06T05:27:55;5.56;63.16
67054;SHT31;53960;51.826;5.850;2023-04-06T05:30:21;5.65;62.98
67054;SHT31;53960;51.826;5.850;2023-04-06T05:32:46;5.60;63.35
67054;SHT31;53960;51.826;5.850;2023-04-06T05:35:12;5.62;63.22
67054;SHT31;53960;51.826;5.850;2023-04-06T05:37:38;5.66;63.27
67054;SHT31;53960;51.826;5.850;2023-04-06T05:40:04;5.66;63.08
67054;SHT31;53960;51.826;5.850;2023-04-06T05:42:39;5.67;63.45
67054;SHT31;53960;51.826;5.850;2023-04-06T05:45:05;5.73;62.85
67054;SHT31;53960;51.826;5.850;2023-04-06T05:47:31;5.73;63.54
67054;SHT31;53960;51.826;5.850;2023-04-06T05:49:56;5.76;63.45
67054;SHT31;53960;51.826;5.850;2023-04-06T05:52:22;5.73;63.22
67054;SHT31;53960;51.826;5.850;2023-04-06T05:54:47;5.81;63.43
67054;SHT31;53960;51.826;5.850;2023-04-06T05:57:12;5.86;63.18
67054;SHT31;53960;51.826;5.850;2023-04-06T05:59:37;5.91;63.37
67054;SHT31;53960;51.826;5.850;2023-04-06T06:02:03;5.94;63.27
67054;SHT31;53960;51.826;5.850;2023-04-06T06:04:28;6.00;62.79
67054;SHT31;53960;51.826;5.850;2023-04-06T06:06:54;6.07;62.60
67054;SHT31;53960;51.826;5.850;2023-04-06T06:09:19;6.17;62.98
67054;SHT31;53960;51.826;5.850;2023-04-06T06:11:45;6.29;62.22
67054;SHT31;53960;51.826;5.850;2023-04-06T06:14:11;6.37;62.01
67054;SHT31;53960;51.826;5.850;2023-04-06T06:16:36;6.42;61.95
67054;SHT31;53960;51.826;5.850;2023-04-06T06:19:01;6.48;61.50
67054;SHT31;53960;51.826;5.850;2023-04-06T06:21:27;6.56;61.74
67054;SHT31;53960;51.826;5.850;2023-04-06T06:23:52;6.65;61.67
67054;SHT31;53960;51.826;5.850;2023-04-06T06:26:19;6.77;60.14
67054;SHT31;53960;51.826;5.850;2023-04-06T06:28:44;6.87;60.42
67054;SHT31;53960;51.826;5.850;2023-04-06T06:31:09;7.00;60.20
67054;SHT31;53960;51.826;5.850;2023-04-06T06:33:35;7.04;59.99
67054;SHT31;53960;51.826;5.850;2023-04-06T06:36:00;7.07;60.43
67054;SHT31;53960;51.826;5.850;2023-04-06T06:38:26;7.11;59.95
67054;SHT31;53960;51.826;5.850;2023-04-06T06:40:52;7.24;59.59
67054;SHT31;53960;51.826;5.850;2023-04-06T06:43:17;7.30;59.52
67054;SHT31;53960;51.826;5.850;2023-04-06T06:45:43;7.37;59.38
67054;SHT31;53960;51.826;5.850;2023-04-06T06:48:09;7.34;58.92
67054;SHT31;53960;51.826;5.850;2023-04-06T06:50:34;7.40;59.36
67054;SHT31;53960;51.826;5.850;2023-04-06T06:53:00;7.43;59.04
67054;SHT31;53960;51.826;5.850;2023-04-06T06:55:25;7.48;58.21
67054;SHT31;53960;51.826;5.850;2023-04-06T06:57:52;7.55;57.72
67054;SHT31;53960;51.826;5.850;2023-04-06T07:00:18;7.58;57.58
67054;SHT31;53960;51.826;5.850;2023-04-06T07:02:45;7.61;57.92
67054;SHT31;53960;51.826;5.850;2023-04-06T07:05:10;7.71;58.31
67054;SHT31;53960;51.826;5.850;2023-04-06T07:07:36;7.78;57.36
67054;SHT31;53960;51.826;5.850;2023-04-06T07:10:01;7.81;56.99
67054;SHT31;53960;51.826;5.850;2023-04-06T07:12:26;7.81;57.30
67054;SHT31;53960;51.826;5.850;2023-04-06T07:14:52;7.82;57.24
67054;SHT31;53960;51.826;5.850;2023-04-06T07:17:17;7.86;57.26
67054;SHT31;53960;51.826;5.850;2023-04-06T07:19:43;7.95;58.24
67054;SHT31;53960;51.826;5.850;2023-04-06T07:22:08;7.93;58.22
67054;SHT31;53960;51.826;5.850;2023-04-06T07:24:33;7.97;58.69
67054;SHT31;53960;51.826;5.850;2023-04-06T07:26:59;8.03;59.09
67054;SHT31;53960;51.826;5.850;2023-04-06T07:29:26;8.10;58.84
67054;SHT31;53960;51.826;5.850;2023-04-06T07:31:51;8.14;58.48
67054;SHT31;53960;51.826;5.850;2023-04-06T07:34:16;8.14;59.31
67054;SHT31;53960;51.826;5.850;2023-04-06T07:36:42;8.14;59.31
67054;SHT31;53960;51.826;5.850;2023-04-06T07:39:07;8.17;59.80
67054;SHT31;53960;51.826;5.850;2023-04-06T07:41:32;8.20;59.77
67054;SHT31;53960;51.826;5.850;2023-04-06T07:43:58;8.22;59.66
67054;SHT31;53960;51.826;5.850;2023-04-06T07:46:24;8.06;60.06
67054;SHT31;53960;51.826;5.850;2023-04-06T07:48:49;8.06;59.86
67054;SHT31;53960;51.826;5.850;2023-04-06T07:51:15;7.96;61.09
67054;SHT31;53960;51.826;5.850;2023-04-06T07:53:43;7.93;61.30
67054;SHT31;53960;51.826;5.850;2023-04-06T07:56:08;7.99;61.41
67054;SHT31;53960;51.826;5.850;2023-04-06T07:58:34;7.99;61.19
67054;SHT31;53960;51.826;5.850;2023-04-06T08:00:59;7.99;60.98
67054;SHT31;53960;51.826;5.850;2023-04-06T08:03:25;8.02;61.45
67054;SHT31;53960;51.826;5.850;2023-04-06T08:05:52;7.97;60.96
67054;SHT31;53960;51.826;5.850;2023-04-06T08:08:17;8.06;61.13
67054;SHT31;53960;51.826;5.850;2023-04-06T08:10:43;8.06;61.59
67054;SHT31;53960;51.826;5.850;2023-04-06T08:13:08;8.10;61.86
67054;SHT31;53960;51.826;5.850;2023-04-06T08:15:34;8.10;61.24
67054;SHT31;53960;51.826;5.850;2023-04-06T08:17:59;8.14;61.27
67054;SHT31;53960;51.826;5.850;2023-04-06T08:20:25;8.14;61.98
67054;SHT31;53960;51.826;5.850;2023-04-06T08:22:50;8.23;62.60
67054;SHT31;53960;51.826;5.850;2023-04-06T08:25:15;8.29;62.29
67054;SHT31;53960;51.826;5.850;2023-04-06T08:27:40;8.36;61.89
67054;SHT31;53960;51.826;5.850;2023-04-06T08:30:06;8.41;60.88
67054;SHT31;53960;51.826;5.850;2023-04-06T08:32:31;8.43;61.14
67054;SHT31;53960;51.826;5.850;2023-04-06T08:34:57;8.41;62.12
67054;SHT31;53960;51.826;5.850;2023-04-06T08:37:22;8.50;61.71
67054;SHT31;53960;51.826;5.850;2023-04-06T08:39:48;8.57;61.74
67054;SHT31;53960;51.826;5.850;2023-04-06T08:42:19;8.58;62.17
67054;SHT31;53960;51.826;5.850;2023-04-06T08:44:46;8.67;61.23
67054;SHT31;53960;51.826;5.850;2023-04-06T08:47:12;8.69;61.48
67054;SHT31;53960;51.826;5.850;2023-04-06T08:49:37;8.68;61.43
67054;SHT31;53960;51.826;5.850;2023-04-06T08:52:06;8.69;61.87
67054;SHT31;53960;51.826;5.850;2023-04-06T08:54:32;8.71;62.05
67054;SHT31;53960;51.826;5.850;2023-04-06T08:56:57;8.69;62.32
67054;SHT31;53960;51.826;5.850;2023-04-06T08:59:24;8.85;62.56
67054;SHT31;53960;51.826;5.850;2023-04-06T09:01:51;8.95;62.00
67054;SHT31;53960;51.826;5.850;2023-04-06T09:04:17;9.05;62.27
67054;SHT31;53960;51.826;5.850;2023-04-06T09:06:43;9.16;61.54
67054;SHT31;53960;51.826;5.850;2023-04-06T09:09:08;9.25;61.19
67054;SHT31;53960;51.826;5.850;2023-04-06T09:11:45;9.39;61.29
67054;SHT31;53960;51.826;5.850;2023-04-06T09:14:10;9.44;60.34
67054;SHT31;53960;51.826;5.850;2023-04-06T09:16:42;9.58;60.95
67054;SHT31;53960;51.826;5.850;2023-04-06T09:19:09;9.69;60.74
67054;SHT31;53960;51.826;5.850;2023-04-06T09:21:35;9.77;60.91
67054;SHT31;53960;51.826;5.850;2023-04-06T09:24:01;9.74;60.23
67054;SHT31;53960;51.826;5.850;2023-04-06T09:26:27;9.88;60.43
67054;SHT31;53960;51.826;5.850;2023-04-06T09:28:54;9.90;59.73
67054;SHT31;53960;51.826;5.850;2023-04-06T09:31:25;9.95;59.41
67054;SHT31;53960;51.826;5.850;2023-04-06T09:33:51;9.94;59.23
67054;SHT31;53960;51.826;5.850;2023-04-06T09:36:17;10.02;59.52
67054;SHT31;53960;51.826;5.850;2023-04-06T09:39:01;9.99;59.68
67054;SHT31;53960;51.826;5.850;2023-04-06T09:41:28;10.02;60.17
67054;SHT31;53960;51.826;5.850;2023-04-06T09:44:08;10.04;59.81
67054;SHT31;53960;51.826;5.850;2023-04-06T09:46:38;10.02;60.57
67054;SHT31;53960;51.826;5.850;2023-04-06T09:49:05;9.99;60.60
67054;SHT31;53960;51.826;5.850;2023-04-06T09:51:54;10.05;60.75
67054;SHT31;53960;51.826;5.850;2023-04-06T09:54:20;10.09;61.30
67054;SHT31;53960;51.826;5.850;2023-04-06T09:56:50;10.16;60.52
67054;SHT31;53960;51.826;5.850;2023-04-06T09:59:23;10.19;60.76
67054;SHT31;53960;51.826;5.850;2023-04-06T10:01:51;10.25;60.49
67054;SHT31;53960;51.826;5.850;2023-04-06T10:06:51;10.26;61.00
67054;SHT31;53960;51.826;5.850;2023-04-06T10:09:18;10.34;61.13
67054;SHT31;53960;51.826;5.850;2023-04-06T10:11:47;10.43;60.17
67054;SHT31;53960;51.826;5.850;2023-04-06T10:14:15;10.45;60.67
67054;SHT31;53960;51.826;5.850;2023-04-06T10:16:40;10.35;60.80
67054;SHT31;53960;51.826;5.850;2023-04-06T10:19:16;10.41;60.18
67054;SHT31;53960;51.826;5.850;2023-04-06T10:21:45;10.46;59.51
67054;SHT31;53960;51.826;5.850;2023-04-06T10:24:13;10.55;59.68
67054;SHT31;53960;51.826;5.850;2023-04-06T10:26:39;10.52;59.50
67054;SHT31;53960;51.826;5.850;2023-04-06T10:29:05;10.55;61.21
67054;SHT31;53960;51.826;5.850;2023-04-06T10:31:31;10.59;59.97
67054;SHT31;53960;51.826;5.850;2023-04-06T10:34:01;10.60;60.92
67054;SHT31;53960;51.826;5.850;2023-04-06T10:36:28;10.67;60.42
67054;SHT31;53960;51.826;5.850;2023-04-06T10:38:58;10.73;59.88
67054;SHT31;53960;51.826;5.850;2023-04-06T10:41:24;10.77;61.51
67054;SHT31;53960;51.826;5.850;2023-04-06T10:43:57;10.89;60.74
67054;SHT31;53960;51.826;5.850;2023-04-06T10:46:27;10.99;60.11
67054;SHT31;53960;51.826;5.850;2023-04-06T10:48:52;11.04;61.44
67054;SHT31;53960;51.826;5.850;2023-04-06T10:51:18;11.13;61.63
67054;SHT31;53960;51.826;5.850;2023-04-06T10:53:46;11.03;60.91
67054;SHT31;53960;51.826;5.850;2023-04-06T10:56:17;11.06;61.07
67054;SHT31;53960;51.826;5.850;2023-04-06T10:58:47;11.17;60.45
67054;SHT31;53960;51.826;5.850;2023-04-06T11:01:14;11.23;60.94
67054;SHT31;53960;51.826;5.850;2023-04-06T11:03:47;11.21;60.84
67054;SHT31;53960;51.826;5.850;2023-04-06T11:06:23;11.18;61.71
67054;SHT31;53960;51.826;5.850;2023-04-06T11:08:49;11.23;62.08
67054;SHT31;53960;51.826;5.850;2023-04-06T11:11:17;11.21;61.44
67054;SHT31;53960;51.826;5.850;2023-04-06T11:13:56;11.15;61.46
67054;SHT31;53960;51.826;5.850;2023-04-06T11:16:26;11.13;62.68
67054;SHT31;53960;51.826;5.850;2023-04-06T11:19:05;11.18;64.34
67054;SHT31;53960;51.826;5.850;2023-04-06T11:21:47;11.15;66.72
67054;SHT31;53960;51.826;5.850;2023-04-06T11:27:05;11.06;69.36
67054;SHT31;53960;51.826;5.850;2023-04-06T11:29:31;10.96;68.89
67054;SHT31;53960;51.826;5.850;2023-04-06T11:32:04;10.94;70.35
67054;SHT31;53960;51.826;5.850;2023-04-06T11:34:33;10.92;70.13
67054;SHT31;53960;51.826;5.850;2023-04-06T11:37:02;10.84;70.45
67054;SHT31;53960;51.826;5.850;2023-04-06T11:39:31;10.89;71.15
67054;SHT31;53960;51.826;5.850;2023-04-06T11:41:59;10.81;70.93
67054;SHT31;53960;51.826;5.850;2023-04-06T11:44:36;10.77;71.71
67054;SHT31;53960;51.826;5.850;2023-04-06T11:47:02;10.72;72.85
67054;SHT31;53960;51.826;5.850;2023-04-06T11:49:29;10.59;72.85
67054;SHT31;53960;51.826;5.850;2023-04-06T11:51:55;10.53;73.57
67054;SHT31;53960;51.826;5.850;2023-04-06T11:54:31;10.45;74.01
67054;SHT31;53960;51.826;5.850;2023-04-06T11:56:57;10.42;74.76
67054;SHT31;53960;51.826;5.850;2023-04-06T11:59:22;10.42;74.98
67054;SHT31;53960;51.826;5.850;2023-04-06T12:01:48;10.34;75.29
67054;SHT31;53960;51.826;5.850;2023-04-06T12:04:13;10.28;76.21
67054;SHT31;53960;51.826;5.850;2023-04-06T12:06:39;10.19;77.55
67054;SHT31;53960;51.826;5.850;2023-04-06T12:09:05;10.22;77.41
67054;SHT31;53960;51.826;5.850;2023-04-06T12:11:30;10.12;77.86
67054;SHT31;53960;51.826;5.850;2023-04-06T12:13:56;9.93;77.80
67054;SHT31;53960;51.826;5.850;2023-04-06T12:16:21;9.94;77.81
67054;SHT31;53960;51.826;5.850;2023-04-06T12:18:46;10.01;78.23
67054;SHT31;53960;51.826;5.850;2023-04-06T12:21:11;9.99;78.30
67054;SHT31;53960;51.826;5.850;2023-04-06T12:23:37;9.94;79.22
67054;SHT31;53960;51.826;5.850;2023-04-06T12:26:03;9.80;78.80
67054;SHT31;53960;51.826;5.850;2023-04-06T12:28:28;9.78;79.57
67054;SHT31;53960;51.826;5.850;2023-04-06T12:30:55;9.80;78.52
67054;SHT31;53960;51.826;5.850;2023-04-06T12:33:20;9.74;79.78
67054;SHT31;53960;51.826;5.850;2023-04-06T12:35:46;9.66;79.07
67054;SHT31;53960;51.826;5.850;2023-04-06T12:38:11;9.53;80.31
67054;SHT31;53960;51.826;5.850;2023-04-06T12:40:40;9.57;81.16
67054;SHT31;53960;51.826;5.850;2023-04-06T12:43:05;9.43;80.42
67054;SHT31;53960;51.826;5.850;2023-04-06T12:45:31;9.30;80.61
67054;SHT31;53960;51.826;5.850;2023-04-06T12:47:57;9.27;80.87
67054;SHT31;53960;51.826;5.850;2023-04-06T12:50:22;9.18;81.02
67054;SHT31;53960;51.826;5.850;2023-04-06T12:52:47;9.15;81.60
67054;SHT31;53960;51.826;5.850;2023-04-06T12:55:13;9.12;82.09
67054;SHT31;53960;51.826;5.850;2023-04-06T12:57:38;9.22;82.41
67054;SHT31;53960;51.826;5.850;2023-04-06T13:00:04;9.19;82.94
67054;SHT31;53960;51.826;5.850;2023-04-06T13:02:30;9.16;83.26
67054;SHT31;53960;51.826;5.850;2023-04-06T13:04:55;9.18;83.27
67054;SHT31;53960;51.826;5.850;2023-04-06T13:07:21;9.06;83.44
67054;SHT31;53960;51.826;5.850;2023-04-06T13:09:47;9.09;83.67
67054;SHT31;53960;51.826;5.850;2023-04-06T13:12:15;9.14;83.87
67054;SHT31;53960;51.826;5.850;2023-04-06T13:14:40;9.15;83.59
67054;SHT31;53960;51.826;5.850;2023-04-06T13:17:06;9.08;83.43
67054;SHT31;53960;51.826;5.850;2023-04-06T13:19:32;8.91;84.41
67054;SHT31;53960;51.826;5.850;2023-04-06T13:21:57;8.96;84.78
67054;SHT31;53960;51.826;5.850;2023-04-06T13:24:22;9.01;84.17
67054;SHT31;53960;51.826;5.850;2023-04-06T13:26:48;9.08;84.30
67054;SHT31;53960;51.826;5.850;2023-04-06T13:29:14;9.11;84.57
67054;SHT31;53960;51.826;5.850;2023-04-06T13:31:39;9.02;84.26
67054;SHT31;53960;51.826;5.850;2023-04-06T13:34:05;9.12;84.64
67054;SHT31;53960;51.826;5.850;2023-04-06T13:36:30;9.15;84.21
67054;SHT31;53960;51.826;5.850;2023-04-06T13:38:57;9.20;84.47
67054;SHT31;53960;51.826;5.850;2023-04-06T13:41:24;9.16;84.66
67054;SHT31;53960;51.826;5.850;2023-04-06T13:43:50;9.12;84.12
67054;SHT31;53960;51.826;5.850;2023-04-06T13:46:15;9.11;84.71
67054;SHT31;53960;51.826;5.850;2023-04-06T13:48:41;9.16;85.11
67054;SHT31;53960;51.826;5.850;2023-04-06T13:51:08;9.25;84.79
67054;SHT31;53960;51.826;5.850;2023-04-06T13:53:34;9.20;84.54
67054;SHT31;53960;51.826;5.850;2023-04-06T13:55:59;9.16;84.59
67054;SHT31;53960;51.826;5.850;2023-04-06T13:58:25;9.16;84.85
67054;SHT31;53960;51.826;5.850;2023-04-06T14:00:50;9.19;84.97
67054;SHT31;53960;51.826;5.850;2023-04-06T14:03:16;9.20;84.82
67054;SHT31;53960;51.826;5.850;2023-04-06T14:05:41;9.20;84.83
67054;SHT31;53960;51.826;5.850;2023-04-06T14:08:06;9.09;85.32
67054;SHT31;53960;51.826;5.850;2023-04-06T14:10:36;9.02;85.09
67054;SHT31;53960;51.826;5.850;2023-04-06T14:13:02;9.08;85.19
67054;SHT31;53960;51.826;5.850;2023-04-06T14:15:27;9.14;85.42
67054;SHT31;53960;51.826;5.850;2023-04-06T14:17:53;9.02;86.01
67054;SHT31;53960;51.826;5.850;2023-04-06T14:20:19;9.06;86.11
67054;SHT31;53960;51.826;5.850;2023-04-06T14:22:44;9.11;86.05
67054;SHT31;53960;51.826;5.850;2023-04-06T14:25:10;8.89;86.62
67054;SHT31;53960;51.826;5.850;2023-04-06T14:27:38;8.96;86.70
67054;SHT31;53960;51.826;5.850;2023-04-06T14:30:04;8.99;86.75
67054;SHT31;53960;51.826;5.850;2023-04-06T14:32:29;8.98;86.36
67054;SHT31;53960;51.826;5.850;2023-04-06T14:34:54;9.06;86.93
67054;SHT31;53960;51.826;5.850;2023-04-06T14:37:20;9.06;86.70
67054;SHT31;53960;51.826;5.850;2023-04-06T14:39:47;9.05;86.21
67054;SHT31;53960;51.826;5.850;2023-04-06T14:42:12;8.96;85.81
67054;SHT31;53960;51.826;5.850;2023-04-06T14:44:38;8.86;86.32
67054;SHT31;53960;51.826;5.850;2023-04-06T14:47:07;8.85;86.96
67054;SHT31;53960;51.826;5.850;2023-04-06T14:49:33;8.89;87.15
67054;SHT31;53960;51.826;5.850;2023-04-06T14:51:59;8.86;87.48
67054;SHT31;53960;51.826;5.850;2023-04-06T14:54:25;8.86;87.91
67054;SHT31;53960;51.826;5.850;2023-04-06T14:56:50;8.81;87.56
67054;SHT31;53960;51.826;5.850;2023-04-06T14:59:15;8.81;87.75
67054;SHT31;53960;51.826;5.850;2023-04-06T15:01:41;8.71;87.80
67054;SHT31;53960;51.826;5.850;2023-04-06T15:04:06;8.65;87.98
67054;SHT31;53960;51.826;5.850;2023-04-06T15:06:32;8.69;88.24
67054;SHT31;53960;51.826;5.850;2023-04-06T15:08:57;8.67;88.23
67054;SHT31;53960;51.826;5.850;2023-04-06T15:11:23;8.72;87.86
67054;SHT31;53960;51.826;5.850;2023-04-06T15:13:48;8.68;87.93
67054;SHT31;53960;51.826;5.850;2023-04-06T15:16:13;8.72;87.82
67054;SHT31;53960;51.826;5.850;2023-04-06T15:18:41;8.68;87.98
67054;SHT31;53960;51.826;5.850;2023-04-06T15:21:07;8.58;88.54
67054;SHT31;53960;51.826;5.850;2023-04-06T15:23:33;8.61;88.71
67054;SHT31;53960;51.826;5.850;2023-04-06T15:26:00;8.54;89.34
67054;SHT31;53960;51.826;5.850;2023-04-06T15:28:26;8.64;89.06
67054;SHT31;53960;51.826;5.850;2023-04-06T15:30:51;8.63;88.99
67054;SHT31;53960;51.826;5.850;2023-04-06T15:33:17;8.61;88.86
67054;SHT31;53960;51.826;5.850;2023-04-06T15:35:42;8.61;88.85
67054;SHT31;53960;51.826;5.850;2023-04-06T15:38:09;8.53;89.01
67054;SHT31;53960;51.826;5.850;2023-04-06T15:40:42;8.60;89.24
67054;SHT31;53960;51.826;5.850;2023-04-06T15:43:07;8.68;88.87
67054;SHT31;53960;51.826;5.850;2023-04-06T15:45:33;8.72;89.15
67054;SHT31;53960;51.826;5.850;2023-04-06T15:47:58;8.74;89.11
67054;SHT31;53960;51.826;5.850;2023-04-06T15:50:23;8.74;89.00